sensor_id;sensor_type;location;lat;lon;timestamp;pressure;altitude;pressure_sealevel;temperature;humidity
75065;BME280;63646;49.110;9.140;2023-02-02T05:02:39;100024.91;;;20.11;52.59
75065;BME280;63646;49.110;9.140;2023-02-02T05:05:06;100014.38;;;20.10;52.46
75065;BME280;63646;49.110;9.140;2023-02-02T05:07:32;100016.56;;;20.16;52.51
75065;BME280;63646;49.110;9.140;2023-02-02T05:09:57;100002.22;;;20.18;52.47
75065;BME280;63646;49.110;9.140;2023-02-02T05:12:23;100001.00;;;20.22;52.01
75065;BME280;63646;49.110;9.140;2023-02-02T05:14:48;100009.56;;;20.26;52.17
75065;BME280;63646;49.110;9.140;2023-02-02T05:17:14;100011.97;;;20.29;51.95
75065;BME280;63646;49.110;9.140;2023-02-02T05:19:40;100023.06;;;20.34;51.59
75065;BME280;63646;49.110;9.140;2023-02-02T05:22:06;100024.63;;;20.37;51.79
75065;BME280;63646;49.110;9.140;2023-02-02T05:24:32;100025.94;;;20.42;51.68
75065;BME280;63646;49.110;9.140;2023-02-02T05:26:57;100037.16;;;20.46;51.38
75065;BME280;63646;49.110;9.140;2023-02-02T05:29:25;100033.53;;;20.47;51.37
75065;BME280;63646;49.110;9.140;2023-02-02T05:31:51;100026.19;;;20.50;51.13
75065;BME280;63646;49.110;9.140;2023-02-02T05:34:16;100041.88;;;20.54;51.29
75065;BME280;63646;49.110;9.140;2023-02-02T05:36:42;100042.72;;;20.54;51.08
75065;BME280;63646;49.110;9.140;2023-02-02T05:39:08;100045.03;;;20.59;51.14
75065;BME280;63646;49.110;9.140;2023-02-02T05:41:37;100042.22;;;20.60;51.11
75065;BME280;63646;49.110;9.140;2023-02-02T05:44:02;100038.75;;;20.60;51.01
75065;BME280;63646;49.110;9.140;2023-02-02T05:46:28;100056.84;;;20.66;50.84
75065;BME280;63646;49.110;9.140;2023-02-02T05:48:54;100047.16;;;20.65;50.89
75065;BME280;63646;49.110;9.140;2023-02-02T05:51:25;100044.41;;;20.66;50.58
75065;BME280;63646;49.110;9.140;2023-02-02T05:53:52;100047.66;;;20.70;50.75
75065;BME280;63646;49.110;9.140;2023-02-02T05:56:17;100050.41;;;20.68;50.67
75065;BME280;63646;49.110;9.140;2023-02-02T05:58:43;100043.03;;;20.72;50.45
75065;BME280;63646;49.110;9.140;2023-02-02T06:01:11;100037.72;;;20.72;50.32
75065;BME280;63646;49.110;9.140;2023-02-02T06:03:37;100037.03;;;20.70;50.51
75065;BME280;63646;49.110;9.140;2023-02-02T06:06:02;100031.47;;;20.73;50.63
75065;BME280;63646;49.110;9.140;2023-02-02T06:08:28;100043.78;;;20.74;50.24
75065;BME280;63646;49.110;9.140;2023-02-02T06:10:53;100040.63;;;20.69;50.87
75065;BME280;63646;49.110;9.140;2023-02-02T06:13:20;100053.91;;;20.69;50.75
75065;BME280;63646;49.110;9.140;2023-02-02T06:15:45;100053.06;;;20.68;50.85
75065;BME280;63646;49.110;9.140;2023-02-02T06:18:10;100062.00;;;20.67;50.78
75065;BME280;63646;49.110;9.140;2023-02-02T06:20:36;100070.81;;;20.68;50.95
75065;BME280;63646;49.110;9.140;2023-02-02T06:23:02;100068.41;;;20.65;50.64
75065;BME280;63646;49.110;9.140;2023-02-02T06:25:29;100071.06;;;20.65;50.51
75065;BME280;63646;49.110;9.140;2023-02-02T06:27:56;100072.78;;;20.66;50.96
75065;BME280;63646;49.110;9.140;2023-02-02T06:30:21;100076.38;;;20.65;50.86
75065;BME280;63646;49.110;9.140;2023-02-02T06:32:47;100080.84;;;20.64;50.64
75065;BME280;63646;49.110;9.140;2023-02-02T06:35:12;100069.97;;;20.67;50.70
75065;BME280;63646;49.110;9.140;2023-02-02T06:37:38;100067.31;;;20.67;50.46
75065;BME280;63646;49.110;9.140;2023-02-02T06:40:08;100051.41;;;20.67;50.78
75065;BME280;63646;49.110;9.140;2023-02-02T06:42:33;100059.22;;;20.69;50.96
75065;BME280;63646;49.110;9.140;2023-02-02T06:44:59;100054.06;;;20.67;50.98
75065;BME280;63646;49.110;9.140;2023-02-02T06:47:24;100076.13;;;20.68;51.01
75065;BME280;63646;49.110;9.140;2023-02-02T06:49:49;100072.25;;;20.72;50.96
75065;BME280;63646;49.110;9.140;2023-02-02T06:52:15;100062.63;;;20.71;50.74
75065;BME280;63646;49.110;9.140;2023-02-02T06:54:40;100074.91;;;20.72;50.87
75065;BME280;63646;49.110;9.140;2023-02-02T06:57:05;100071.41;;;20.71;50.88
75065;BME280;63646;49.110;9.140;2023-02-02T06:59:31;100067.09;;;20.70;50.60
75065;BME280;63646;49.110;9.140;2023-02-02T07:01:56;100072.25;;;20.72;50.44
75065;BME280;63646;49.110;9.140;2023-02-02T07:04:22;100079.53;;;20.70;50.98
75065;BME280;63646;49.110;9.140;2023-02-02T07:06:47;100075.06;;;20.70;50.52
75065;BME280;63646;49.110;9.140;2023-02-02T07:09:13;100078.53;;;20.71;50.65
75065;BME280;63646;49.110;9.140;2023-02-02T07:11:38;100070.56;;;20.71;50.44
75065;BME280;63646;49.110;9.140;2023-02-02T07:14:04;100087.25;;;20.73;50.64
75065;BME280;63646;49.110;9.140;2023-02-02T07:16:29;100085.69;;;20.70;50.80
75065;BME280;63646;49.110;9.140;2023-02-02T07:18:55;100082.28;;;20.68;50.81
75065;BME280;63646;49.110;9.140;2023-02-02T07:21:24;100085.91;;;20.67;50.93
75065;BME280;63646;49.110;9.140;2023-02-02T07:23:50;100082.53;;;20.65;50.83
75065;BME280;63646;49.110;9.140;2023-02-02T07:26:17;100089.41;;;20.68;50.70
75065;BME280;63646;49.110;9.140;2023-02-02T07:28:44;100080.75;;;20.66;50.59
75065;BME280;63646;49.110;9.140;2023-02-02T07:31:25;100081.69;;;20.65;50.92
75065;BME280;63646;49.110;9.140;2023-02-02T07:33:52;100080.97;;;20.63;51.17
75065;BME280;63646;49.110;9.140;2023-02-02T07:36:18;100085.56;;;20.61;51.29
75065;BME280;63646;49.110;9.140;2023-02-02T07:38:45;100105.13;;;20.60;51.18
75065;BME280;63646;49.110;9.140;2023-02-02T07:41:11;100112.94;;;20.61;51.17
75065;BME280;63646;49.110;9.140;2023-02-02T07:43:37;100097.63;;;20.65;50.73
75065;BME280;63646;49.110;9.140;2023-02-02T07:46:04;100098.72;;;20.62;51.15
75065;BME280;63646;49.110;9.140;2023-02-02T07:48:32;100097.50;;;20.66;50.94
75065;BME280;63646;49.110;9.140;2023-02-02T07:51:03;100102.69;;;20.68;50.84
75065;BME280;63646;49.110;9.140;2023-02-02T07:53:29;100107.75;;;20.71;50.54
75065;BME280;63646;49.110;9.140;2023-02-02T07:56:18;100107.50;;;20.74;50.69
75065;BME280;63646;49.110;9.140;2023-02-02T07:58:44;100109.19;;;20.75;50.72
75065;BME280;63646;49.110;9.140;2023-02-02T08:01:12;100122.47;;;20.75;50.89
75065;BME280;63646;49.110;9.140;2023-02-02T08:03:38;100124.66;;;20.81;51.06
75065;BME280;63646;49.110;9.140;2023-02-02T08:06:24;100135.13;;;20.83;50.88
75065;BME280;63646;49.110;9.140;2023-02-02T08:08:50;100129.72;;;20.84;50.58
75065;BME280;63646;49.110;9.140;2023-02-02T08:11:18;100134.75;;;20.87;50.65
75065;BME280;63646;49.110;9.140;2023-02-02T08:13:47;100148.03;;;20.87;50.78
75065;BME280;63646;49.110;9.140;2023-02-02T08:16:13;100139.84;;;20.90;50.62
75065;BME280;63646;49.110;9.140;2023-02-02T08:18:38;100150.22;;;20.93;50.55
75065;BME280;63646;49.110;9.140;2023-02-02T08:21:05;100159.75;;;20.96;50.37
75065;BME280;63646;49.110;9.140;2023-02-02T08:23:32;100155.28;;;20.96;50.69
75065;BME280;63646;49.110;9.140;2023-02-02T08:26:10;100154.56;;;20.94;50.40
75065;BME280;63646;49.110;9.140;2023-02-02T08:28:36;100154.44;;;20.96;50.27
75065;BME280;63646;49.110;9.140;2023-02-02T08:31:07;100159.41;;;20.89;50.89
75065;BME280;63646;49.110;9.140;2023-02-02T08:33:33;100155.06;;;20.88;50.63
75065;BME280;63646;49.110;9.140;2023-02-02T08:35:58;100159.41;;;20.89;50.64
75065;BME280;63646;49.110;9.140;2023-02-02T08:38:24;100168.34;;;20.88;50.88
75065;BME280;63646;49.110;9.140;2023-02-02T08:40:49;100164.56;;;20.91;50.83
75065;BME280;63646;49.110;9.140;2023-02-02T08:43:15;100160.25;;;20.90;50.67
75065;BME280;63646;49.110;9.140;2023-02-02T08:45:42;100161.47;;;20.86;50.62
75065;BME280;63646;49.110;9.140;2023-02-02T08:48:07;100169.44;;;20.86;51.01
75065;BME280;63646;49.110;9.140;2023-02-02T08:50:33;100168.44;;;20.87;50.55
75065;BME280;63646;49.110;9.140;2023-02-02T08:52:58;100173.91;;;20.85;50.84
75065;BME280;63646;49.110;9.140;2023-02-02T08:55:23;100175.72;;;20.85;50.91
75065;BME280;63646;49.110;9.140;2023-02-02T08:57:49;100175.59;;;20.86;50.59
75065;BME280;63646;49.110;9.140;2023-02-02T09:00:14;100169.28;;;20.87;50.48
75065;BME280;63646;49.110;9.140;2023-02-02T09:02:40;100166.63;;;20.87;50.96
75065;BME280;63646;49.110;9.140;2023-02-02T09:05:06;100156.88;;;20.88;50.57
75065;BME280;63646;49.110;9.140;2023-02-02T09:07:31;100161.31;;;20.87;50.73
75065;BME280;63646;49.110;9.140;2023-02-02T09:09:57;100163.88;;;20.89;50.90
75065;BME280;63646;49.110;9.140;2023-02-02T09:12:23;100161.31;;;20.87;50.65
75065;BME280;63646;49.110;9.140;2023-02-02T09:14:48;100160.47;;;20.87;50.71
75065;BME280;63646;49.110;9.140;2023-02-02T09:17:14;100161.31;;;20.87;51.02
75065;BME280;63646;49.110;9.140;2023-02-02T09:19:39;100163.88;;;20.89;50.88
75065;BME280;63646;49.110;9.140;2023-02-02T09:22:05;100174.38;;;20.90;50.83
75065;BME280;63646;49.110;9.140;2023-02-02T09:24:30;100149.25;;;20.83;50.57
75065;BME280;63646;49.110;9.140;2023-02-02T09:26:56;100175.59;;;20.86;50.93
75065;BME280;63646;49.110;9.140;2023-02-02T09:29:27;100180.28;;;20.83;50.12
75065;BME280;63646;49.110;9.140;2023-02-02T09:31:53;100182.94;;;20.83;50.65
75065;BME280;63646;49.110;9.140;2023-02-02T09:34:18;100170.75;;;20.80;50.27
75065;BME280;63646;49.110;9.140;2023-02-02T09:36:44;100176.94;;;20.81;50.33
75065;BME280;63646;49.110;9.140;2023-02-02T09:39:10;100183.19;;;20.80;50.24
75065;BME280;63646;49.110;9.140;2023-02-02T09:47:15;100183.94;;;20.82;50.23
75065;BME280;63646;49.110;9.140;2023-02-02T09:50:03;100184.75;;;20.82;49.91
75065;BME280;63646;49.110;9.140;2023-02-02T09:55:02;100192.53;;;20.16;45.55
75065;BME280;63646;49.110;9.140;2023-02-02T09:57:36;100170.00;;;20.33;47.09
75065;BME280;63646;49.110;9.140;2023-02-02T10:00:03;100169.50;;;20.39;48.42
75065;BME280;63646;49.110;9.140;2023-02-02T10:02:35;100168.81;;;20.48;49.11
75065;BME280;63646;49.110;9.140;2023-02-02T10:05:20;100169.31;;;20.54;48.22
75065;BME280;63646;49.110;9.140;2023-02-02T10:07:52;100169.81;;;20.59;48.17
75065;BME280;63646;49.110;9.140;2023-02-02T10:10:24;100173.91;;;20.63;48.02
75065;BME280;63646;49.110;9.140;2023-02-02T10:12:58;100184.03;;;20.69;48.34
75065;BME280;63646;49.110;9.140;2023-02-02T10:20:54;100173.91;;;20.74;48.29
75065;BME280;63646;49.110;9.140;2023-02-02T10:23:22;100188.03;;;20.74;48.50
75065;BME280;63646;49.110;9.140;2023-02-02T10:29:00;100187.66;;;20.79;48.82
75065;BME280;63646;49.110;9.140;2023-02-02T10:31:34;100180.53;;;20.80;47.82
75065;BME280;63646;49.110;9.140;2023-02-02T10:39:18;100198.41;;;20.89;48.74
75065;BME280;63646;49.110;9.140;2023-02-02T10:41:58;100206.00;;;20.93;48.62
75065;BME280;63646;49.110;9.140;2023-02-02T10:44:48;100220.50;;;20.89;48.44
75065;BME280;63646;49.110;9.140;2023-02-02T10:47:25;100216.41;;;20.85;48.74
75065;BME280;63646;49.110;9.140;2023-02-02T10:50:21;100217.94;;;20.77;48.73
75065;BME280;63646;49.110;9.140;2023-02-02T10:52:51;100228.00;;;20.73;49.72
75065;BME280;63646;49.110;9.140;2023-02-02T10:55:30;100226.78;;;20.77;49.78
75065;BME280;63646;49.110;9.140;2023-02-02T10:58:00;100226.28;;;20.72;50.35
75065;BME280;63646;49.110;9.140;2023-02-02T11:03:14;100229.78;;;20.72;50.62
75065;BME280;63646;49.110;9.140;2023-02-02T11:05:40;100211.81;;;20.76;50.91
75065;BME280;63646;49.110;9.140;2023-02-02T11:08:45;100212.41;;;20.80;51.06
75065;BME280;63646;49.110;9.140;2023-02-02T11:11:18;100211.47;;;20.81;51.59
75065;BME280;63646;49.110;9.140;2023-02-02T11:13:52;100215.66;;;20.83;51.78
75065;BME280;63646;49.110;9.140;2023-02-02T11:16:22;100219.28;;;20.82;52.06
75065;BME280;63646;49.110;9.140;2023-02-02T11:18:47;100216.88;;;20.79;51.57
75065;BME280;63646;49.110;9.140;2023-02-02T11:26:22;100225.06;;;20.87;52.20
75065;BME280;63646;49.110;9.140;2023-02-02T11:28:48;100215.66;;;20.83;52.44
75065;BME280;63646;49.110;9.140;2023-02-02T11:31:32;100220.13;;;20.83;52.55
75065;BME280;63646;49.110;9.140;2023-02-02T11:37:03;100213.25;;;20.80;52.48
75065;BME280;63646;49.110;9.140;2023-02-02T11:39:34;100211.09;;;20.85;52.53
75065;BME280;63646;49.110;9.140;2023-02-02T11:42:11;100213.25;;;20.80;52.73
75065;BME280;63646;49.110;9.140;2023-02-02T11:44:38;100223.16;;;20.78;52.69
75065;BME280;63646;49.110;9.140;2023-02-02T11:47:04;100216.88;;;20.79;52.71
75065;BME280;63646;49.110;9.140;2023-02-02T11:49:35;100220.88;;;20.73;52.72
75065;BME280;63646;49.110;9.140;2023-02-02T11:52:05;100220.28;;;20.70;53.11
75065;BME280;63646;49.110;9.140;2023-02-02T11:54:33;100215.66;;;20.72;52.71
75065;BME280;63646;49.110;9.140;2023-02-02T11:57:02;100211.34;;;20.71;52.63
75065;BME280;63646;49.110;9.140;2023-02-02T12:04:45;100207.22;;;20.78;52.25
75065;BME280;63646;49.110;9.140;2023-02-02T12:07:31;100206.25;;;20.79;52.42
75065;BME280;63646;49.110;9.140;2023-02-02T12:10:10;100194.91;;;20.88;52.69
75065;BME280;63646;49.110;9.140;2023-02-02T12:12:57;100192.94;;;21.02;51.68
75065;BME280;63646;49.110;9.140;2023-02-02T12:23:46;100191.84;;;21.15;51.51
75065;BME280;63646;49.110;9.140;2023-02-02T12:26:16;100188.34;;;21.15;51.26
75065;BME280;63646;49.110;9.140;2023-02-02T12:32:05;100199.81;;;21.15;51.22
75065;BME280;63646;49.110;9.140;2023-02-02T12:35:01;100192.69;;;21.16;51.07
75065;BME280;63646;49.110;9.140;2023-02-02T12:37:53;100190.03;;;21.16;51.13
75065;BME280;63646;49.110;9.140;2023-02-02T12:43:41;100212.38;;;21.13;51.21
75065;BME280;63646;49.110;9.140;2023-02-02T12:52:15;100211.44;;;21.14;50.72
75065;BME280;63646;49.110;9.140;2023-02-02T12:56:48;100217.81;;;21.12;51.17
75065;BME280;63646;49.110;9.140;2023-02-02T13:05:28;100214.56;;;21.08;51.34
75065;BME280;63646;49.110;9.140;2023-02-02T13:10:32;100216.53;;;21.06;51.32
75065;BME280;63646;49.110;9.140;2023-02-02T13:15:34;100209.63;;;21.04;51.29
75065;BME280;63646;49.110;9.140;2023-02-02T13:18:05;100216.84;;;21.02;50.96
75065;BME280;63646;49.110;9.140;2023-02-02T13:23:06;100223.88;;;21.03;50.94
75065;BME280;63646;49.110;9.140;2023-02-02T13:25:42;100226.88;;;20.98;51.31
75065;BME280;63646;49.110;9.140;2023-02-02T13:28:22;100231.38;;;20.97;51.25
75065;BME280;63646;49.110;9.140;2023-02-02T13:30:50;100228.00;;;20.95;51.69
75065;BME280;63646;49.110;9.140;2023-02-02T13:33:29;100239.34;;;20.97;51.69
75065;BME280;63646;49.110;9.140;2023-02-02T13:35:59;100242.81;;;20.98;51.58
75065;BME280;63646;49.110;9.140;2023-02-02T13:38:30;100241.00;;;20.98;51.13
75065;BME280;63646;49.110;9.140;2023-02-02T13:41:00;100239.22;;;20.99;51.48
75065;BME280;63646;49.110;9.140;2023-02-02T13:43:38;100252.38;;;21.01;51.10
75065;BME280;63646;49.110;9.140;2023-02-02T13:49:24;100238.13;;;21.02;51.10
75065;BME280;63646;49.110;9.140;2023-02-02T14:00:38;100246.59;;;21.07;51.68
75065;BME280;63646;49.110;9.140;2023-02-02T14:06:07;100256.94;;;21.10;51.69
75065;BME280;63646;49.110;9.140;2023-02-02T14:08:34;100256.94;;;21.10;51.05
75065;BME280;63646;49.110;9.140;2023-02-02T14:11:02;100262.03;;;21.13;51.64
75065;BME280;63646;49.110;9.140;2023-02-02T14:13:51;100260.09;;;21.15;51.34
75065;BME280;63646;49.110;9.140;2023-02-02T14:16:41;100255.63;;;21.15;51.19
75065;BME280;63646;49.110;9.140;2023-02-02T14:27:00;100263.72;;;21.14;51.63
75065;BME280;63646;49.110;9.140;2023-02-02T14:34:28;100267.94;;;20.94;50.58
75065;BME280;63646;49.110;9.140;2023-02-02T14:40:02;100276.06;;;21.04;50.54
75065;BME280;63646;49.110;9.140;2023-02-02T14:45:40;100269.53;;;21.08;50.40
75065;BME280;63646;49.110;9.140;2023-02-02T14:48:07;100273.16;;;21.07;50.81
75065;BME280;63646;49.110;9.140;2023-02-02T14:53:15;100276.28;;;21.12;50.57
75065;BME280;63646;49.110;9.140;2023-02-02T14:58:26;100283.28;;;21.13;50.77
75065;BME280;63646;49.110;9.140;2023-02-02T15:01:12;100284.13;;;21.13;50.81
75065;BME280;63646;49.110;9.140;2023-02-02T15:06:44;100301.78;;;21.14;50.32
75065;BME280;63646;49.110;9.140;2023-02-02T15:14:40;100302.03;;;21.11;50.53
75065;BME280;63646;49.110;9.140;2023-02-02T15:22:49;100319.53;;;21.14;50.56
75065;BME280;63646;49.110;9.140;2023-02-02T15:25:19;100320.50;;;21.13;50.71
75065;BME280;63646;49.110;9.140;2023-02-02T15:27:52;100319.03;;;21.09;50.65
75065;BME280;63646;49.110;9.140;2023-02-02T15:30:19;100317.50;;;21.06;50.93
75065;BME280;63646;49.110;9.140;2023-02-02T15:32:47;100335.13;;;21.07;50.74
75065;BME280;63646;49.110;9.140;2023-02-02T15:35:22;100343.09;;;21.07;51.23
75065;BME280;63646;49.110;9.140;2023-02-02T15:37:57;100341.28;;;21.08;50.62
75065;BME280;63646;49.110;9.140;2023-02-02T15:40:25;100336.94;;;21.07;50.97
75065;BME280;63646;49.110;9.140;2023-02-02T15:42:56;100345.84;;;21.06;50.72
75065;BME280;63646;49.110;9.140;2023-02-02T15:48:31;100358.44;;;21.04;50.95
75065;BME280;63646;49.110;9.140;2023-02-02T15:50:59;100353.13;;;21.04;51.16
75065;BME280;63646;49.110;9.140;2023-02-02T15:53:48;100358.28;;;21.05;51.18
75065;BME280;63646;49.110;9.140;2023-02-02T15:58:51;100368.22;;;21.03;51.41
75065;BME280;63646;49.110;9.140;2023-02-02T16:01:19;100374.38;;;21.04;50.83
75065;BME280;63646;49.110;9.140;2023-02-02T16:03:47;100378.00;;;21.03;50.78
75065;BME280;63646;49.110;9.140;2023-02-02T16:06:16;100387.66;;;21.04;51.01
75065;BME280;63646;49.110;9.140;2023-02-02T16:08:42;100392.22;;;21.02;50.77
75065;BME280;63646;49.110;9.140;2023-02-02T16:13:36;100395.63;;;21.04;50.96
75065;BME280;63646;49.110;9.140;2023-02-02T16:16:20;100391.28;;;21.03;50.74
75065;BME280;63646;49.110;9.140;2023-02-02T16:18:46;100405.19;;;21.06;51.08
75065;BME280;63646;49.110;9.140;2023-02-02T16:21:19;100407.09;;;21.04;50.81
75065;BME280;63646;49.110;9.140;2023-02-02T16:23:47;100409.75;;;21.04;50.22
75065;BME280;63646;49.110;9.140;2023-02-02T16:26:14;100417.72;;;21.04;50.63
75065;BME280;63646;49.110;9.140;2023-02-02T16:28:40;100417.72;;;21.04;50.67
75065;BME280;63646;49.110;9.140;2023-02-02T16:31:09;100427.50;;;21.04;50.83
75065;BME280;63646;49.110;9.140;2023-02-02T16:33:40;100435.50;;;21.04;50.79
75065;BME280;63646;49.110;9.140;2023-02-02T16:36:23;100435.59;;;21.02;51.90
75065;BME280;63646;49.110;9.140;2023-02-02T16:38:50;100441.50;;;21.06;50.87
75065;BME280;63646;49.110;9.140;2023-02-02T16:41:46;100447.44;;;21.09;50.88
75065;BME280;63646;49.110;9.140;2023-02-02T16:47:01;100458.56;;;21.03;51.63
75065;BME280;63646;49.110;9.140;2023-02-02T16:49:29;100459.41;;;21.04;51.65
75065;BME280;63646;49.110;9.140;2023-02-02T16:54:32;100459.63;;;21.01;51.72
75065;BME280;63646;49.110;9.140;2023-02-02T16:56:59;100462.28;;;21.01;51.20
75065;BME280;63646;49.110;9.140;2023-02-02T16:59:33;100460.00;;;20.96;51.48
75065;BME280;63646;49.110;9.140;2023-02-02T17:04:47;100458.16;;;20.96;51.31
75065;BME280;63646;49.110;9.140;2023-02-02T17:07:15;100469.66;;;20.97;51.07
75065;BME280;63646;49.110;9.140;2023-02-02T17:09:43;100472.16;;;20.98;50.88
75065;BME280;63646;49.110;9.140;2023-02-02T17:14:54;100472.16;;;20.98;50.95
75065;BME280;63646;49.110;9.140;2023-02-02T17:17:22;100473.75;;;21.01;51.18
75065;BME280;63646;49.110;9.140;2023-02-02T17:19:50;100475.34;;;21.04;51.51
75065;BME280;63646;49.110;9.140;2023-02-02T17:22:18;100474.50;;;21.03;51.89
75065;BME280;63646;49.110;9.140;2023-02-02T17:24:46;100474.28;;;21.06;51.73
75065;BME280;63646;49.110;9.140;2023-02-02T17:27:15;100491.78;;;21.09;52.09
75065;BME280;63646;49.110;9.140;2023-02-02T17:29:43;100498.91;;;21.08;51.67
75065;BME280;63646;49.110;9.140;2023-02-02T17:32:12;100508.34;;;21.12;51.62
75065;BME280;63646;49.110;9.140;2023-02-02T17:34:37;100506.53;;;21.13;51.69
75065;BME280;63646;49.110;9.140;2023-02-02T17:37:03;100515.84;;;21.18;51.52
75065;BME280;63646;49.110;9.140;2023-02-02T17:39:28;100516.47;;;21.22;51.82
75065;BME280;63646;49.110;9.140;2023-02-02T17:41:54;100509.34;;;21.22;50.97
75065;BME280;63646;49.110;9.140;2023-02-02T17:44:19;100518.38;;;21.20;51.24
75065;BME280;63646;49.110;9.140;2023-02-02T17:46:45;100530.72;;;21.21;51.54
75065;BME280;63646;49.110;9.140;2023-02-02T17:49:10;100529.63;;;21.23;51.08
75065;BME280;63646;49.110;9.140;2023-02-02T17:51:36;100535.31;;;21.19;51.43
75065;BME280;63646;49.110;9.140;2023-02-02T17:54:12;100542.09;;;21.23;51.57
75065;BME280;63646;49.110;9.140;2023-02-02T17:56:39;100549.84;;;21.26;50.91
75065;BME280;63646;49.110;9.140;2023-02-02T17:59:05;100545.34;;;21.27;51.28
75065;BME280;63646;49.110;9.140;2023-02-02T18:01:31;100546.19;;;21.27;51.61
75065;BME280;63646;49.110;9.140;2023-02-02T18:03:57;100543.06;;;21.22;51.11
75065;BME280;63646;49.110;9.140;2023-02-02T18:06:22;100550.91;;;21.23;51.38
75065;BME280;63646;49.110;9.140;2023-02-02T18:08:48;100543.66;;;21.26;51.59
75065;BME280;63646;49.110;9.140;2023-02-02T18:11:13;100539.44;;;21.23;51.45
75065;BME280;63646;49.110;9.140;2023-02-02T18:13:41;100533.41;;;21.21;51.12
75065;BME280;63646;49.110;9.140;2023-02-02T18:16:07;100531.59;;;21.21;51.57
75065;BME280;63646;49.110;9.140;2023-02-02T18:18:33;100530.72;;;21.21;51.60
75065;BME280;63646;49.110;9.140;2023-02-02T18:20:59;100526.38;;;21.20;51.78
75065;BME280;63646;49.110;9.140;2023-02-02T18:23:25;100536.75;;;21.23;51.56
75065;BME280;63646;49.110;9.140;2023-02-02T18:25:51;100551.03;;;21.22;51.49
75065;BME280;63646;49.110;9.140;2023-02-02T18:28:19;100550.06;;;21.23;51.37
75065;BME280;63646;49.110;9.140;2023-02-02T18:30:45;100548.38;;;21.22;50.78
75065;BME280;63646;49.110;9.140;2023-02-02T18:33:12;100548.38;;;21.22;51.53
75065;BME280;63646;49.110;9.140;2023-02-02T18:35:41;100552.09;;;21.19;50.97
75065;BME280;63646;49.110;9.140;2023-02-02T18:38:08;100554.75;;;21.19;51.47
75065;BME280;63646;49.110;9.140;2023-02-02T18:40:33;100545.72;;;21.22;51.58
75065;BME280;63646;49.110;9.140;2023-02-02T18:42:59;100564.09;;;21.25;51.19
75065;BME280;63646;49.110;9.140;2023-02-02T18:45:24;100550.28;;;21.20;51.17
75065;BME280;63646;49.110;9.140;2023-02-02T18:47:50;100552.00;;;21.21;51.38
75065;BME280;63646;49.110;9.140;2023-02-02T18:50:15;100568.19;;;21.18;51.41
75065;BME280;63646;49.110;9.140;2023-02-02T18:52:40;100562.84;;;21.18;51.25
75065;BME280;63646;49.110;9.140;2023-02-02T18:55:06;100560.44;;;21.15;51.42
75065;BME280;63646;49.110;9.140;2023-02-02T18:57:32;100567.66;;;21.13;51.72
75065;BME280;63646;49.110;9.140;2023-02-02T18:59:57;100568.50;;;21.13;51.64
75065;BME280;63646;49.110;9.140;2023-02-02T19:02:23;100568.28;;;21.16;51.09
75065;BME280;63646;49.110;9.140;2023-02-02T19:04:49;100572.75;;;21.16;52.04
75065;BME280;63646;49.110;9.140;2023-02-02T19:07:34;100567.34;;;21.17;52.02
75065;BME280;63646;49.110;9.140;2023-02-02T19:10:18;100569.72;;;21.20;51.36
75065;BME280;63646;49.110;9.140;2023-02-02T19:15:16;100566.22;;;21.20;51.57
75065;BME280;63646;49.110;9.140;2023-02-02T19:17:42;100568.41;;;21.15;51.80
75065;BME280;63646;49.110;9.140;2023-02-02T19:20:25;100568.41;;;21.15;51.85
75065;BME280;63646;49.110;9.140;2023-02-02T19:22:59;100567.44;;;21.16;51.71
75065;BME280;63646;49.110;9.140;2023-02-02T19:25:25;100571.78;;;21.17;51.52
75065;BME280;63646;49.110;9.140;2023-02-02T19:27:52;100565.75;;;21.15;51.92
75065;BME280;63646;49.110;9.140;2023-02-02T19:30:19;100567.56;;;21.14;51.55
75065;BME280;63646;49.110;9.140;2023-02-02T19:32:46;100572.25;;;21.11;51.71
75065;BME280;63646;49.110;9.140;2023-02-02T19:35:20;100577.56;;;21.11;52.10
75065;BME280;63646;49.110;9.140;2023-02-02T19:37:47;100572.25;;;21.11;51.96
75065;BME280;63646;49.110;9.140;2023-02-02T19:40:18;100583.72;;;21.11;51.84
75065;BME280;63646;49.110;9.140;2023-02-02T19:42:54;100575.13;;;21.08;51.62
75065;BME280;63646;49.110;9.140;2023-02-02T19:47:46;100579.25;;;21.12;52.15
75065;BME280;63646;49.110;9.140;2023-02-02T19:50:16;100575.56;;;21.02;52.72
75065;BME280;63646;49.110;9.140;2023-02-02T19:52:42;100574.88;;;20.99;52.98
75065;BME280;63646;49.110;9.140;2023-02-02T19:55:20;100577.97;;;20.93;53.85
75065;BME280;63646;49.110;9.140;2023-02-02T19:57:46;100561.88;;;20.95;54.03
75065;BME280;63646;49.110;9.140;2023-02-02T20:00:27;100568.31;;;20.92;53.16
75065;BME280;63646;49.110;9.140;2023-02-02T20:03:09;100564.81;;;20.92;53.60
75065;BME280;63646;49.110;9.140;2023-02-02T20:10:38;100554.03;;;20.93;52.90
75065;BME280;63646;49.110;9.140;2023-02-02T20:15:55;100553.81;;;20.96;53.21
75065;BME280;63646;49.110;9.140;2023-02-02T20:18:28;100544.78;;;20.99;53.10
75065;BME280;63646;49.110;9.140;2023-02-02T20:21:01;100546.34;;;21.02;52.77
75065;BME280;63646;49.110;9.140;2023-02-02T20:23:43;100541.78;;;21.04;52.41
75065;BME280;63646;49.110;9.140;2023-02-02T20:28:51;100549.28;;;21.10;52.40
75065;BME280;63646;49.110;9.140;2023-02-02T20:31:24;100543.69;;;21.02;52.81
75065;BME280;63646;49.110;9.140;2023-02-02T20:33:54;100550.38;;;21.07;52.32
75065;BME280;63646;49.110;9.140;2023-02-02T20:36:30;100555.56;;;21.09;52.48
75065;BME280;63646;49.110;9.140;2023-02-02T20:38:59;100553.66;;;21.11;52.37
75065;BME280;63646;49.110;9.140;2023-02-02T20:41:25;100557.25;;;21.10;52.27
75065;BME280;63646;49.110;9.140;2023-02-02T20:43:51;100570.31;;;21.13;52.18
75065;BME280;63646;49.110;9.140;2023-02-02T20:46:16;100565.84;;;21.13;52.63